sensor_id;sensor_type;location;lat;lon;timestamp;P1;durP1;ratioP1;P2;durP2;ratioP2
74344;SDS011;62776;50.518;6.732;2023-04-02T00:00:35;0.68;;;0.68;;
74344;SDS011;62776;50.518;6.732;2023-04-02T00:09:31;2.70;;;2.50;;
74344;SDS011;62776;50.518;6.732;2023-04-02T00:12:21;3.78;;;2.88;;
74344;SDS011;62776;50.518;6.732;2023-04-02T00:15:11;6.18;;;4.20;;
74344;SDS011;62776;50.518;6.732;2023-04-02T00:17:58;12.70;;;8.05;;
74344;SDS011;62776;50.518;6.732;2023-04-02T00:20:49;19.25;;;8.40;;
74344;SDS011;62776;50.518;6.732;2023-04-02T00:23:54;24.52;;;9.27;;
74344;SDS011;62776;50.518;6.732;2023-04-02T00:26:43;25.55;;;11.75;;
74344;SDS011;62776;50.518;6.732;2023-04-02T00:29:33;21.35;;;10.10;;
74344;SDS011;62776;50.518;6.732;2023-04-02T00:32:26;43.65;;;13.18;;
74344;SDS011;62776;50.518;6.732;2023-04-02T00:35:18;72.22;;;17.63;;
74344;SDS011;62776;50.518;6.732;2023-04-02T00:38:15;36.00;;;11.20;;
74344;SDS011;62776;50.518;6.732;2023-04-02T00:41:13;12.98;;;7.57;;
74344;SDS011;62776;50.518;6.732;2023-04-02T00:44:06;8.73;;;7.22;;
74344;SDS011;62776;50.518;6.732;2023-04-02T00:47:21;8.20;;;6.35;;
74344;SDS011;62776;50.518;6.732;2023-04-02T00:50:30;3.42;;;3.13;;
74344;SDS011;62776;50.518;6.732;2023-04-02T00:53:24;5.95;;;4.57;;
74344;SDS011;62776;50.518;6.732;2023-04-02T00:56:16;3.78;;;3.47;;
74344;SDS011;62776;50.518;6.732;2023-04-02T00:59:24;3.13;;;2.83;;
74344;SDS011;62776;50.518;6.732;2023-04-02T01:02:32;3.95;;;3.47;;
74344;SDS011;62776;50.518;6.732;2023-04-02T01:05:26;5.30;;;3.78;;
74344;SDS011;62776;50.518;6.732;2023-04-02T01:08:21;6.15;;;3.72;;
74344;SDS011;62776;50.518;6.732;2023-04-02T01:20:56;2.25;;;2.05;;
74344;SDS011;62776;50.518;6.732;2023-04-02T01:24:08;2.25;;;1.77;;
74344;SDS011;62776;50.518;6.732;2023-04-02T01:27:04;1.50;;;1.37;;
74344;SDS011;62776;50.518;6.732;2023-04-02T01:30:00;2.25;;;2.05;;
74344;SDS011;62776;50.518;6.732;2023-04-02T01:32:56;2.58;;;2.38;;
74344;SDS011;62776;50.518;6.732;2023-04-02T01:35:43;2.08;;;1.95;;
74344;SDS011;62776;50.518;6.732;2023-04-02T01:38:47;2.55;;;2.35;;
74344;SDS011;62776;50.518;6.732;2023-04-02T01:41:48;2.15;;;1.95;;
74344;SDS011;62776;50.518;6.732;2023-04-02T01:47:42;2.50;;;2.30;;
74344;SDS011;62776;50.518;6.732;2023-04-02T01:50:33;2.05;;;1.85;;
74344;SDS011;62776;50.518;6.732;2023-04-02T01:53:22;3.67;;;2.55;;
74344;SDS011;62776;50.518;6.732;2023-04-02T01:56:11;3.83;;;2.33;;
74344;SDS011;62776;50.518;6.732;2023-04-02T01:58:58;4.30;;;2.55;;
74344;SDS011;62776;50.518;6.732;2023-04-02T02:01:46;2.38;;;1.95;;
74344;SDS011;62776;50.518;6.732;2023-04-02T02:04:49;3.70;;;2.15;;
74344;SDS011;62776;50.518;6.732;2023-04-02T02:07:36;3.33;;;2.45;;
74344;SDS011;62776;50.518;6.732;2023-04-02T02:10:28;1.98;;;1.70;;
74344;SDS011;62776;50.518;6.732;2023-04-02T02:13:23;4.18;;;3.08;;
74344;SDS011;62776;50.518;6.732;2023-04-02T02:16:17;9.50;;;4.80;;
74344;SDS011;62776;50.518;6.732;2023-04-02T02:19:03;23.98;;;6.28;;
74344;SDS011;62776;50.518;6.732;2023-04-02T02:21:53;18.13;;;6.82;;
74344;SDS011;62776;50.518;6.732;2023-04-02T02:25:09;32.20;;;9.90;;
74344;SDS011;62776;50.518;6.732;2023-04-02T02:31:20;146.90;;;18.60;;
74344;SDS011;62776;50.518;6.732;2023-04-02T02:34:15;348.40;;;37.67;;
74344;SDS011;62776;50.518;6.732;2023-04-02T02:37:11;355.23;;;31.45;;
74344;SDS011;62776;50.518;6.732;2023-04-02T02:40:10;387.58;;;37.17;;
74344;SDS011;62776;50.518;6.732;2023-04-02T02:43:11;367.85;;;32.03;;
74344;SDS011;62776;50.518;6.732;2023-04-02T02:46:04;180.07;;;20.98;;
74344;SDS011;62776;50.518;6.732;2023-04-02T02:48:57;229.57;;;23.95;;
74344;SDS011;62776;50.518;6.732;2023-04-02T02:54:53;95.38;;;14.77;;
74344;SDS011;62776;50.518;6.732;2023-04-02T02:57:52;81.47;;;16.00;;
74344;SDS011;62776;50.518;6.732;2023-04-02T03:00:46;82.18;;;15.00;;
74344;SDS011;62776;50.518;6.732;2023-04-02T03:03:41;41.30;;;11.60;;
74344;SDS011;62776;50.518;6.732;2023-04-02T03:06:30;50.65;;;11.95;;
74344;SDS011;62776;50.518;6.732;2023-04-02T03:15:27;134.50;;;18.55;;
74344;SDS011;62776;50.518;6.732;2023-04-02T03:27:29;25.55;;;7.30;;
74344;SDS011;62776;50.518;6.732;2023-04-02T03:36:29;145.02;;;17.30;;
74344;SDS011;62776;50.518;6.732;2023-04-02T03:39:39;236.98;;;27.48;;
74344;SDS011;62776;50.518;6.732;2023-04-02T03:42:59;298.15;;;34.03;;
74344;SDS011;62776;50.518;6.732;2023-04-02T03:49:18;358.17;;;36.88;;
74344;SDS011;62776;50.518;6.732;2023-04-02T03:52:16;398.58;;;41.20;;
74344;SDS011;62776;50.518;6.732;2023-04-02T03:55:12;319.90;;;33.83;;
74344;SDS011;62776;50.518;6.732;2023-04-02T04:01:27;204.57;;;27.23;;
74344;SDS011;62776;50.518;6.732;2023-04-02T04:04:20;139.90;;;18.40;;
74344;SDS011;62776;50.518;6.732;2023-04-02T04:07:20;72.38;;;16.05;;
74344;SDS011;62776;50.518;6.732;2023-04-02T04:10:25;53.10;;;12.48;;
74344;SDS011;62776;50.518;6.732;2023-04-02T04:13:16;134.60;;;20.27;;
74344;SDS011;62776;50.518;6.732;2023-04-02T04:16:14;115.38;;;19.48;;
74344;SDS011;62776;50.518;6.732;2023-04-02T04:22:29;6.90;;;4.57;;
74344;SDS011;62776;50.518;6.732;2023-04-02T04:25:22;7.53;;;5.03;;
74344;SDS011;62776;50.518;6.732;2023-04-02T04:28:22;5.40;;;3.95;;
74344;SDS011;62776;50.518;6.732;2023-04-02T04:31:24;8.60;;;5.28;;
74344;SDS011;62776;50.518;6.732;2023-04-02T04:34:20;7.63;;;5.07;;
74344;SDS011;62776;50.518;6.732;2023-04-02T04:37:25;8.23;;;5.10;;
74344;SDS011;62776;50.518;6.732;2023-04-02T04:40:27;11.90;;;6.80;;
74344;SDS011;62776;50.518;6.732;2023-04-02T04:43:26;12.73;;;6.55;;
74344;SDS011;62776;50.518;6.732;2023-04-02T04:46:30;11.25;;;6.50;;
74344;SDS011;62776;50.518;6.732;2023-04-02T04:52:32;11.98;;;6.20;;
74344;SDS011;62776;50.518;6.732;2023-04-02T04:55:29;16.20;;;7.55;;
74344;SDS011;62776;50.518;6.732;2023-04-02T04:58:32;9.38;;;6.60;;
74344;SDS011;62776;50.518;6.732;2023-04-02T05:04:59;7.90;;;5.50;;
74344;SDS011;62776;50.518;6.732;2023-04-02T05:07:48;8.00;;;5.63;;
74344;SDS011;62776;50.518;6.732;2023-04-02T05:10:51;6.03;;;5.13;;
74344;SDS011;62776;50.518;6.732;2023-04-02T05:14:30;7.90;;;5.43;;
74344;SDS011;62776;50.518;6.732;2023-04-02T05:17:35;6.00;;;4.97;;
74344;SDS011;62776;50.518;6.732;2023-04-02T05:20:49;13.45;;;7.18;;
74344;SDS011;62776;50.518;6.732;2023-04-02T05:23:50;6.68;;;5.20;;
74344;SDS011;62776;50.518;6.732;2023-04-02T05:26:46;9.80;;;5.53;;
74344;SDS011;62776;50.518;6.732;2023-04-02T05:29:35;10.55;;;5.72;;
74344;SDS011;62776;50.518;6.732;2023-04-02T05:32:35;22.63;;;7.27;;
74344;SDS011;62776;50.518;6.732;2023-04-02T05:35:31;21.38;;;7.55;;
74344;SDS011;62776;50.518;6.732;2023-04-02T05:38:26;46.92;;;9.43;;
74344;SDS011;62776;50.518;6.732;2023-04-02T05:47:26;20.83;;;8.13;;
74344;SDS011;62776;50.518;6.732;2023-04-02T05:50:16;149.05;;;20.65;;
74344;SDS011;62776;50.518;6.732;2023-04-02T05:53:18;50.90;;;11.38;;
74344;SDS011;62776;50.518;6.732;2023-04-02T05:56:22;41.00;;;14.15;;
74344;SDS011;62776;50.518;6.732;2023-04-02T05:59:27;39.75;;;12.80;;
74344;SDS011;62776;50.518;6.732;2023-04-02T06:02:21;30.88;;;10.10;;
74344;SDS011;62776;50.518;6.732;2023-04-02T06:05:25;27.45;;;12.02;;
74344;SDS011;62776;50.518;6.732;2023-04-02T06:08:35;31.25;;;12.45;;
74344;SDS011;62776;50.518;6.732;2023-04-02T06:11:36;13.07;;;7.80;;
74344;SDS011;62776;50.518;6.732;2023-04-02T06:14:29;13.10;;;7.53;;
74344;SDS011;62776;50.518;6.732;2023-04-02T06:17:23;13.43;;;7.75;;
74344;SDS011;62776;50.518;6.732;2023-04-02T06:20:12;18.13;;;8.52;;
74344;SDS011;62776;50.518;6.732;2023-04-02T06:26:23;13.48;;;7.72;;
74344;SDS011;62776;50.518;6.732;2023-04-02T06:32:25;8.73;;;6.03;;
74344;SDS011;62776;50.518;6.732;2023-04-02T06:35:13;6.82;;;5.35;;
74344;SDS011;62776;50.518;6.732;2023-04-02T06:38:01;8.27;;;6.32;;
74344;SDS011;62776;50.518;6.732;2023-04-02T06:46:58;10.02;;;7.10;;
74344;SDS011;62776;50.518;6.732;2023-04-02T06:50:22;8.93;;;6.30;;
74344;SDS011;62776;50.518;6.732;2023-04-02T06:53:26;10.02;;;6.05;;
74344;SDS011;62776;50.518;6.732;2023-04-02T06:56:34;7.53;;;6.18;;
74344;SDS011;62776;50.518;6.732;2023-04-02T06:59:38;10.05;;;6.70;;
74344;SDS011;62776;50.518;6.732;2023-04-02T07:05:11;7.10;;;5.40;;
74344;SDS011;62776;50.518;6.732;2023-04-02T07:07:59;9.77;;;6.03;;
74344;SDS011;62776;50.518;6.732;2023-04-02T07:10:51;12.73;;;7.47;;
74344;SDS011;62776;50.518;6.732;2023-04-02T07:13:37;7.05;;;5.00;;
74344;SDS011;62776;50.518;6.732;2023-04-02T07:16:26;15.35;;;7.35;;
74344;SDS011;62776;50.518;6.732;2023-04-02T07:19:17;11.10;;;7.25;;
74344;SDS011;62776;50.518;6.732;2023-04-02T07:22:06;8.05;;;5.97;;
74344;SDS011;62776;50.518;6.732;2023-04-02T07:24:52;8.05;;;6.50;;
74344;SDS011;62776;50.518;6.732;2023-04-02T07:27:38;11.73;;;8.18;;
74344;SDS011;62776;50.518;6.732;2023-04-02T07:30:25;15.40;;;9.00;;
74344;SDS011;62776;50.518;6.732;2023-04-02T07:33:15;35.05;;;13.75;;
74344;SDS011;62776;50.518;6.732;2023-04-02T07:36:06;13.90;;;9.07;;
74344;SDS011;62776;50.518;6.732;2023-04-02T07:38:56;18.65;;;10.60;;
74344;SDS011;62776;50.518;6.732;2023-04-02T07:41:49;23.83;;;11.00;;
74344;SDS011;62776;50.518;6.732;2023-04-02T07:44:45;17.80;;;9.45;;
74344;SDS011;62776;50.518;6.732;2023-04-02T07:47:43;68.47;;;18.20;;
74344;SDS011;62776;50.518;6.732;2023-04-02T07:50:34;64.53;;;17.25;;
74344;SDS011;62776;50.518;6.732;2023-04-02T07:53:33;87.18;;;22.80;;
74344;SDS011;62776;50.518;6.732;2023-04-02T07:56:24;80.20;;;20.30;;
74344;SDS011;62776;50.518;6.732;2023-04-02T07:59:17;80.75;;;19.98;;
74344;SDS011;62776;50.518;6.732;2023-04-02T08:02:14;136.77;;;26.58;;
74344;SDS011;62776;50.518;6.732;2023-04-02T08:05:07;222.52;;;40.60;;
74344;SDS011;62776;50.518;6.732;2023-04-02T08:07:59;167.90;;;31.02;;
74344;SDS011;62776;50.518;6.732;2023-04-02T08:10:47;32.45;;;12.90;;
74344;SDS011;62776;50.518;6.732;2023-04-02T08:13:39;15.70;;;8.82;;
74344;SDS011;62776;50.518;6.732;2023-04-02T08:16:25;11.88;;;6.88;;
74344;SDS011;62776;50.518;6.732;2023-04-02T08:19:11;8.48;;;6.50;;
74344;SDS011;62776;50.518;6.732;2023-04-02T08:22:00;7.82;;;6.53;;
74344;SDS011;62776;50.518;6.732;2023-04-02T08:24:49;4.40;;;4.00;;
74344;SDS011;62776;50.518;6.732;2023-04-02T08:27:38;8.40;;;6.13;;
74344;SDS011;62776;50.518;6.732;2023-04-02T08:30:28;6.32;;;5.50;;
74344;SDS011;62776;50.518;6.732;2023-04-02T08:33:10;10.07;;;8.35;;
74344;SDS011;62776;50.518;6.732;2023-04-02T08:35:56;24.88;;;11.82;;
74344;SDS011;62776;50.518;6.732;2023-04-02T08:38:46;36.58;;;16.98;;
74344;SDS011;62776;50.518;6.732;2023-04-02T08:41:36;27.77;;;14.25;;
74344;SDS011;62776;50.518;6.732;2023-04-02T08:47:47;61.50;;;22.48;;
74344;SDS011;62776;50.518;6.732;2023-04-02T08:50:37;113.20;;;32.47;;
74344;SDS011;62776;50.518;6.732;2023-04-02T08:53:27;80.75;;;26.90;;
74344;SDS011;62776;50.518;6.732;2023-04-02T08:56:19;55.25;;;22.77;;
74344;SDS011;62776;50.518;6.732;2023-04-02T09:02:24;20.75;;;14.40;;
74344;SDS011;62776;50.518;6.732;2023-04-02T09:05:36;8.57;;;7.78;;
74344;SDS011;62776;50.518;6.732;2023-04-02T09:08:26;10.65;;;8.90;;
74344;SDS011;62776;50.518;6.732;2023-04-02T09:14:44;45.85;;;18.52;;
74344;SDS011;62776;50.518;6.732;2023-04-02T09:17:43;21.17;;;14.80;;
74344;SDS011;62776;50.518;6.732;2023-04-02T09:20:29;25.70;;;15.75;;
74344;SDS011;62776;50.518;6.732;2023-04-02T09:23:17;21.65;;;14.85;;
74344;SDS011;62776;50.518;6.732;2023-04-02T09:35:11;26.25;;;16.98;;
74344;SDS011;62776;50.518;6.732;2023-04-02T09:38:18;44.90;;;22.38;;
74344;SDS011;62776;50.518;6.732;2023-04-02T09:41:19;98.93;;;30.77;;
74344;SDS011;62776;50.518;6.732;2023-04-02T09:44:16;54.72;;;25.08;;
74344;SDS011;62776;50.518;6.732;2023-04-02T09:47:09;59.92;;;23.17;;
74344;SDS011;62776;50.518;6.732;2023-04-02T09:50:18;36.63;;;21.52;;
74344;SDS011;62776;50.518;6.732;2023-04-02T09:53:29;27.13;;;17.25;;
74344;SDS011;62776;50.518;6.732;2023-04-02T09:56:21;34.53;;;18.92;;
74344;SDS011;62776;50.518;6.732;2023-04-02T10:01:58;34.70;;;20.38;;
74344;SDS011;62776;50.518;6.732;2023-04-02T10:04:49;46.53;;;21.15;;
74344;SDS011;62776;50.518;6.732;2023-04-02T10:07:37;38.50;;;21.92;;
74344;SDS011;62776;50.518;6.732;2023-04-02T10:10:30;18.23;;;13.85;;
74344;SDS011;62776;50.518;6.732;2023-04-02T10:13:28;13.77;;;12.25;;
74344;SDS011;62776;50.518;6.732;2023-04-02T10:16:44;12.15;;;11.05;;
74344;SDS011;62776;50.518;6.732;2023-04-02T10:19:39;60.38;;;26.02;;
74344;SDS011;62776;50.518;6.732;2023-04-02T10:22:29;33.53;;;18.60;;
74344;SDS011;62776;50.518;6.732;2023-04-02T10:25:18;128.48;;;39.47;;
74344;SDS011;62776;50.518;6.732;2023-04-02T10:28:22;43.80;;;21.33;;
74344;SDS011;62776;50.518;6.732;2023-04-02T10:34:36;43.88;;;23.90;;
74344;SDS011;62776;50.518;6.732;2023-04-02T10:37:49;134.23;;;41.05;;
74344;SDS011;62776;50.518;6.732;2023-04-02T10:43:45;964.55;;;189.00;;
74344;SDS011;62776;50.518;6.732;2023-04-02T10:46:52;957.00;;;166.95;;
74344;SDS011;62776;50.518;6.732;2023-04-02T10:50:04;890.33;;;148.35;;
74344;SDS011;62776;50.518;6.732;2023-04-02T10:53:16;954.50;;;174.30;;
74344;SDS011;62776;50.518;6.732;2023-04-02T10:56:06;936.38;;;178.30;;
74344;SDS011;62776;50.518;6.732;2023-04-02T10:59:04;1030.90;;;198.10;;
74344;SDS011;62776;50.518;6.732;2023-04-02T11:02:05;776.20;;;160.90;;
74344;SDS011;62776;50.518;6.732;2023-04-02T11:05:25;991.58;;;172.10;;
74344;SDS011;62776;50.518;6.732;2023-04-02T11:08:22;928.20;;;184.35;;
74344;SDS011;62776;50.518;6.732;2023-04-02T11:11:33;1171.22;;;216.65;;
74344;SDS011;62776;50.518;6.732;2023-04-02T11:14:26;1126.90;;;231.90;;
74344;SDS011;62776;50.518;6.732;2023-04-02T11:17:15;794.40;;;150.80;;
74344;SDS011;62776;50.518;6.732;2023-04-02T11:24:00;853.85;;;163.48;;
74344;SDS011;62776;50.518;6.732;2023-04-02T11:26:49;862.05;;;153.98;;
74344;SDS011;62776;50.518;6.732;2023-04-02T11:29:39;885.05;;;186.88;;
74344;SDS011;62776;50.518;6.732;2023-04-02T11:32:49;1178.78;;;228.73;;
74344;SDS011;62776;50.518;6.732;2023-04-02T11:35:36;994.55;;;173.30;;
74344;SDS011;62776;50.518;6.732;2023-04-02T11:41:10;932.75;;;188.57;;
74344;SDS011;62776;50.518;6.732;2023-04-02T11:43:59;716.65;;;153.73;;
74344;SDS011;62776;50.518;6.732;2023-04-02T11:46:47;380.38;;;93.30;;
74344;SDS011;62776;50.518;6.732;2023-04-02T11:49:39;483.77;;;117.75;;
74344;SDS011;62776;50.518;6.732;2023-04-02T11:55:46;361.20;;;78.35;;
74344;SDS011;62776;50.518;6.732;2023-04-02T11:59:01;465.08;;;116.32;;
74344;SDS011;62776;50.518;6.732;2023-04-02T12:02:01;446.98;;;91.97;;
74344;SDS011;62776;50.518;6.732;2023-04-02T12:11:15;70.07;;;38.67;;
74344;SDS011;62776;50.518;6.732;2023-04-02T12:14:27;30.90;;;25.58;;
74344;SDS011;62776;50.518;6.732;2023-04-02T12:17:32;133.80;;;51.88;;
74344;SDS011;62776;50.518;6.732;2023-04-02T12:20:22;149.60;;;54.08;;
74344;SDS011;62776;50.518;6.732;2023-04-02T12:23:19;101.72;;;47.25;;
74344;SDS011;62776;50.518;6.732;2023-04-02T12:39:14;61.53;;;36.13;;
74344;SDS011;62776;50.518;6.732;2023-04-02T12:42:01;44.03;;;30.85;;
74344;SDS011;62776;50.518;6.732;2023-04-02T12:44:48;34.63;;;27.65;;
74344;SDS011;62776;50.518;6.732;2023-04-02T12:47:35;37.67;;;29.45;;
74344;SDS011;62776;50.518;6.732;2023-04-02T12:50:21;43.70;;;32.83;;
74344;SDS011;62776;50.518;6.732;2023-04-02T12:53:13;36.13;;;26.65;;
74344;SDS011;62776;50.518;6.732;2023-04-02T12:56:23;33.13;;;26.75;;
74344;SDS011;62776;50.518;6.732;2023-04-02T13:03:06;30.45;;;26.55;;
74344;SDS011;62776;50.518;6.732;2023-04-02T13:05:31;27.98;;;25.00;;
74344;SDS011;62776;50.518;6.732;2023-04-02T13:08:25;38.13;;;28.77;;
74344;SDS011;62776;50.518;6.732;2023-04-02T13:11:16;23.38;;;20.95;;
74344;SDS011;62776;50.518;6.732;2023-04-02T13:14:03;24.05;;;21.52;;
74344;SDS011;62776;50.518;6.732;2023-04-02T13:16:53;23.98;;;21.52;;
74344;SDS011;62776;50.518;6.732;2023-04-02T13:19:42;30.80;;;25.52;;
74344;SDS011;62776;50.518;6.732;2023-04-02T13:22:29;37.53;;;29.80;;
74344;SDS011;62776;50.518;6.732;2023-04-02T13:25:19;22.50;;;20.20;;
74344;SDS011;62776;50.518;6.732;2023-04-02T13:28:13;21.80;;;19.70;;
74344;SDS011;62776;50.518;6.732;2023-04-02T13:31:02;21.77;;;19.63;;
74344;SDS011;62776;50.518;6.732;2023-04-02T13:33:48;21.75;;;19.55;;
74344;SDS011;62776;50.518;6.732;2023-04-02T13:36:38;19.90;;;18.10;;
74344;SDS011;62776;50.518;6.732;2023-04-02T13:39:26;20.42;;;18.50;;
74344;SDS011;62776;50.518;6.732;2023-04-02T13:42:14;24.40;;;21.83;;
74344;SDS011;62776;50.518;6.732;2023-04-02T13:45:04;18.85;;;17.13;;
74344;SDS011;62776;50.518;6.732;2023-04-02T13:48:01;20.50;;;18.20;;
74344;SDS011;62776;50.518;6.732;2023-04-02T13:50:55;20.88;;;18.42;;
74344;SDS011;62776;50.518;6.732;2023-04-02T13:53:54;18.83;;;17.00;;
74344;SDS011;62776;50.518;6.732;2023-04-02T13:56:41;20.95;;;19.15;;
74344;SDS011;62776;50.518;6.732;2023-04-02T13:59:35;19.38;;;17.77;;
74344;SDS011;62776;50.518;6.732;2023-04-02T14:02:23;14.23;;;13.02;;
74344;SDS011;62776;50.518;6.732;2023-04-02T14:11:26;13.98;;;12.88;;
74344;SDS011;62776;50.518;6.732;2023-04-02T14:15:06;16.27;;;14.68;;
74344;SDS011;62776;50.518;6.732;2023-04-02T14:21:41;13.75;;;12.52;;
74344;SDS011;62776;50.518;6.732;2023-04-02T14:27:55;15.30;;;14.00;;
74344;SDS011;62776;50.518;6.732;2023-04-02T14:31:02;14.35;;;12.95;;
74344;SDS011;62776;50.518;6.732;2023-04-02T14:37:19;12.60;;;11.50;;
74344;SDS011;62776;50.518;6.732;2023-04-02T14:40:16;12.45;;;11.35;;
74344;SDS011;62776;50.518;6.732;2023-04-02T14:43:24;11.63;;;10.73;;
74344;SDS011;62776;50.518;6.732;2023-04-02T14:46:36;14.27;;;13.00;;
74344;SDS011;62776;50.518;6.732;2023-04-02T14:49:30;13.63;;;12.27;;
74344;SDS011;62776;50.518;6.732;2023-04-02T14:52:24;14.45;;;13.25;;
74344;SDS011;62776;50.518;6.732;2023-04-02T14:55:26;13.43;;;12.00;;
74344;SDS011;62776;50.518;6.732;2023-04-02T14:58:42;12.00;;;11.02;;
74344;SDS011;62776;50.518;6.732;2023-04-02T15:01:38;11.35;;;10.45;;
74344;SDS011;62776;50.518;6.732;2023-04-02T15:04:31;13.48;;;12.27;;
74344;SDS011;62776;50.518;6.732;2023-04-02T15:10:24;13.68;;;12.32;;
74344;SDS011;62776;50.518;6.732;2023-04-02T15:13:17;12.48;;;11.27;;
74344;SDS011;62776;50.518;6.732;2023-04-02T15:16:17;11.40;;;10.43;;
74344;SDS011;62776;50.518;6.732;2023-04-02T15:19:14;11.85;;;10.90;;
74344;SDS011;62776;50.518;6.732;2023-04-02T15:25:21;10.38;;;9.52;;
74344;SDS011;62776;50.518;6.732;2023-04-02T15:28:38;10.85;;;10.02;;
74344;SDS011;62776;50.518;6.732;2023-04-02T15:31:42;11.45;;;10.30;;
74344;SDS011;62776;50.518;6.732;2023-04-02T15:34:33;11.82;;;10.88;;
74344;SDS011;62776;50.518;6.732;2023-04-02T15:37:34;10.75;;;9.75;;
74344;SDS011;62776;50.518;6.732;2023-04-02T15:50:12;8.90;;;8.10;;
74344;SDS011;62776;50.518;6.732;2023-04-02T15:56:46;7.70;;;7.10;;
74344;SDS011;62776;50.518;6.732;2023-04-02T15:59:58;9.52;;;8.73;;
74344;SDS011;62776;50.518;6.732;2023-04-02T16:06:27;9.13;;;8.32;;
74344;SDS011;62776;50.518;6.732;2023-04-02T16:10:01;7.22;;;6.63;;
74344;SDS011;62776;50.518;6.732;2023-04-02T16:12:56;7.03;;;6.32;;
74344;SDS011;62776;50.518;6.732;2023-04-02T16:15:45;6.05;;;5.55;;
74344;SDS011;62776;50.518;6.732;2023-04-02T16:27:57;4.20;;;3.90;;
74344;SDS011;62776;50.518;6.732;2023-04-02T16:34:27;10.13;;;9.10;;
74344;SDS011;62776;50.518;6.732;2023-04-02T16:40:37;11.45;;;10.35;;
74344;SDS011;62776;50.518;6.732;2023-04-02T16:46:43;45.22;;;38.35;;
74344;SDS011;62776;50.518;6.732;2023-04-02T16:52:44;4.00;;;3.15;;
74344;SDS011;62776;50.518;6.732;2023-04-02T17:09:13;4.32;;;3.92;;
74344;SDS011;62776;50.518;6.732;2023-04-02T17:12:10;4.60;;;4.18;;
74344;SDS011;62776;50.518;6.732;2023-04-02T17:15:37;5.18;;;4.78;;
74344;SDS011;62776;50.518;6.732;2023-04-02T17:18:37;4.47;;;3.92;;
74344;SDS011;62776;50.518;6.732;2023-04-02T17:21:27;5.03;;;4.55;;
74344;SDS011;62776;50.518;6.732;2023-04-02T17:24:25;4.35;;;3.85;;
74344;SDS011;62776;50.518;6.732;2023-04-02T17:27:26;4.32;;;4.00;;
74344;SDS011;62776;50.518;6.732;2023-04-02T17:30:31;5.60;;;4.60;;
74344;SDS011;62776;50.518;6.732;2023-04-02T17:33:26;5.55;;;5.15;;
74344;SDS011;62776;50.518;6.732;2023-04-02T17:48:52;5.40;;;4.90;;
74344;SDS011;62776;50.518;6.732;2023-04-02T17:51:34;4.20;;;3.80;;
74344;SDS011;62776;50.518;6.732;2023-04-02T18:03:56;4.45;;;3.63;;
74344;SDS011;62776;50.518;6.732;2023-04-02T18:13:40;3.58;;;3.25;;
74344;SDS011;62776;50.518;6.732;2023-04-02T18:25:50;4.22;;;2.40;;
74344;SDS011;62776;50.518;6.732;2023-04-02T18:44:29;2.67;;;2.47;;
74344;SDS011;62776;50.518;6.732;2023-04-02T18:50:30;2.58;;;2.40;;
74344;SDS011;62776;50.518;6.732;2023-04-02T18:53:23;2.55;;;2.03;;
74344;SDS011;62776;50.518;6.732;2023-04-02T18:56:15;2.55;;;2.35;;
74344;SDS011;62776;50.518;6.732;2023-04-02T19:08:50;1.98;;;1.88;;
74344;SDS011;62776;50.518;6.732;2023-04-02T19:11:43;1.63;;;1.50;;
74344;SDS011;62776;50.518;6.732;2023-04-02T19:14:31;2.63;;;1.77;;
74344;SDS011;62776;50.518;6.732;2023-04-02T19:20:19;3.03;;;2.30;;
74344;SDS011;62776;50.518;6.732;2023-04-02T19:23:41;7.72;;;6.45;;
74344;SDS011;62776;50.518;6.732;2023-04-02T19:26:40;3.92;;;3.47;;
74344;SDS011;62776;50.518;6.732;2023-04-02T19:30:33;13.20;;;10.85;;
74344;SDS011;62776;50.518;6.732;2023-04-02T19:37:35;6.13;;;4.88;;
74344;SDS011;62776;50.518;6.732;2023-04-02T19:40:30;4.10;;;3.70;;
74344;SDS011;62776;50.518;6.732;2023-04-02T19:43:23;3.28;;;2.15;;
74344;SDS011;62776;50.518;6.732;2023-04-02T19:46:10;2.03;;;1.92;;
74344;SDS011;62776;50.518;6.732;2023-04-02T19:52:06;2.03;;;1.83;;
74344;SDS011;62776;50.518;6.732;2023-04-02T19:54:52;2.10;;;1.90;;
74344;SDS011;62776;50.518;6.732;2023-04-02T19:57:39;2.17;;;1.98;;
74344;SDS011;62776;50.518;6.732;2023-04-02T20:00:25;2.00;;;1.80;;
74344;SDS011;62776;50.518;6.732;2023-04-02T20:03:11;2.50;;;2.30;;
74344;SDS011;62776;50.518;6.732;2023-04-02T20:06:00;2.15;;;1.95;;
74344;SDS011;62776;50.518;6.732;2023-04-02T20:08:46;2.72;;;2.00;;
74344;SDS011;62776;50.518;6.732;2023-04-02T20:11:34;2.65;;;1.90;;
74344;SDS011;62776;50.518;6.732;2023-04-02T20:14:21;1.95;;;1.83;;
74344;SDS011;62776;50.518;6.732;2023-04-02T20:17:09;2.35;;;2.13;;
74344;SDS011;62776;50.518;6.732;2023-04-02T20:19:59;3.05;;;2.28;;
74344;SDS011;62776;50.518;6.732;2023-04-02T20:22:46;2.28;;;2.08;;
74344;SDS011;62776;50.518;6.732;2023-04-02T20:25:34;2.55;;;2.30;;
74344;SDS011;62776;50.518;6.732;2023-04-02T20:28:21;3.05;;;2.10;;
74344;SDS011;62776;50.518;6.732;2023-04-02T20:31:09;2.40;;;2.20;;
74344;SDS011;62776;50.518;6.732;2023-04-02T20:36:49;2.97;;;2.55;;
74344;SDS011;62776;50.518;6.732;2023-04-02T20:39:35;2.10;;;1.90;;
74344;SDS011;62776;50.518;6.732;2023-04-02T20:42:34;3.03;;;1.52;;
74344;SDS011;62776;50.518;6.732;2023-04-02T20:45:20;1.85;;;1.70;;
74344;SDS011;62776;50.518;6.732;2023-04-02T20:48:08;2.45;;;2.20;;
74344;SDS011;62776;50.518;6.732;2023-04-02T20:51:07;1.95;;;1.83;;
74344;SDS011;62776;50.518;6.732;2023-04-02T20:53:55;2.10;;;1.65;;
74344;SDS011;62776;50.518;6.732;2023-04-02T20:56:41;1.90;;;1.80;;
74344;SDS011;62776;50.518;6.732;2023-04-02T20:59:28;2.35;;;2.15;;
74344;SDS011;62776;50.518;6.732;2023-04-02T21:02:15;2.15;;;1.83;;
74344;SDS011;62776;50.518;6.732;2023-04-02T21:05:03;2.47;;;1.60;;
74344;SDS011;62776;50.518;6.732;2023-04-02T21:07:50;1.67;;;1.58;;
74344;SDS011;62776;50.518;6.732;2023-04-02T21:10:37;1.70;;;1.60;;
74344;SDS011;62776;50.518;6.732;2023-04-02T21:13:24;2.67;;;2.05;;
74344;SDS011;62776;50.518;6.732;2023-04-02T21:16:23;4.88;;;2.00;;
74344;SDS011;62776;50.518;6.732;2023-04-02T21:19:13;3.13;;;1.88;;
74344;SDS011;62776;50.518;6.732;2023-04-02T21:22:01;2.88;;;1.80;;
74344;SDS011;62776;50.518;6.732;2023-04-02T21:24:49;2.55;;;1.92;;
74344;SDS011;62776;50.518;6.732;2023-04-02T21:27:35;1.50;;;1.40;;
74344;SDS011;62776;50.518;6.732;2023-04-02T21:30:22;1.50;;;1.40;;
74344;SDS011;62776;50.518;6.732;2023-04-02T21:33:14;1.65;;;1.38;;
74344;SDS011;62776;50.518;6.732;2023-04-02T21:36:04;2.50;;;2.20;;
74344;SDS011;62776;50.518;6.732;2023-04-02T21:39:05;1.83;;;1.73;;
74344;SDS011;62776;50.518;6.732;2023-04-02T21:41:53;1.83;;;1.70;;
74344;SDS011;62776;50.518;6.732;2023-04-02T21:44:39;2.25;;;1.98;;
74344;SDS011;62776;50.518;6.732;2023-04-02T21:47:28;2.10;;;1.85;;
74344;SDS011;62776;50.518;6.732;2023-04-02T21:50:15;2.08;;;1.88;;
74344;SDS011;62776;50.518;6.732;2023-04-02T21:53:03;4.70;;;2.28;;
74344;SDS011;62776;50.518;6.732;2023-04-02T21:55:49;3.75;;;2.35;;
74344;SDS011;62776;50.518;6.732;2023-04-02T21:58:46;1.92;;;1.45;;
74344;SDS011;62776;50.518;6.732;2023-04-02T22:01:34;2.15;;;1.85;;
74344;SDS011;62776;50.518;6.732;2023-04-02T22:04:29;1.67;;;1.58;;
74344;SDS011;62776;50.518;6.732;2023-04-02T22:07:25;2.72;;;1.88;;
74344;SDS011;62776;50.518;6.732;2023-04-02T22:10:11;2.00;;;1.60;;
74344;SDS011;62776;50.518;6.732;2023-04-02T22:12:57;2.03;;;1.70;;
74344;SDS011;62776;50.518;6.732;2023-04-02T22:15:43;2.80;;;2.25;;